createdAt,value
2018-06-18T00:57:52.787Z,15.80
2018-06-18T01:00:22.149Z,15.80
2018-06-18T01:02:50.945Z,15.70
2018-06-18T01:05:19.538Z,15.80
2018-06-18T01:07:48.392Z,15.70
2018-06-18T01:10:17.041Z,15.80
2018-06-18T01:12:45.452Z,15.70
2018-06-18T01:15:14.145Z,15.70
2018-06-18T01:17:42.578Z,15.70
2018-06-18T01:20:11.088Z,15.70
2018-06-18T01:22:42.573Z,15.70
2018-06-18T01:25:11.911Z,15.60
2018-06-18T01:27:40.558Z,15.70
2018-06-18T01:30:09.291Z,15.60
2018-06-18T01:32:37.780Z,15.60
2018-06-18T01:35:07.889Z,15.60
2018-06-18T01:37:36.696Z,15.60
2018-06-18T01:40:05.672Z,15.60
2018-06-18T01:42:34.070Z,15.50
2018-06-18T01:45:02.706Z,15.60
2018-06-18T01:47:31.506Z,15.60
2018-06-18T01:52:28.463Z,15.60
2018-06-18T01:57:25.032Z,15.60
2018-06-18T01:59:53.592Z,15.60
2018-06-18T02:02:23.188Z,15.60
2018-06-18T02:04:51.557Z,15.60
2018-06-18T02:07:19.934Z,15.60
2018-06-18T02:09:49.168Z,15.60
2018-06-18T02:12:17.650Z,15.60
2018-06-18T02:14:46.318Z,15.50
2018-06-18T02:17:14.711Z,15.60
2018-06-18T02:19:43.412Z,15.60
2018-06-18T02:22:12.184Z,15.60
2018-06-18T02:24:40.746Z,15.50
2018-06-18T02:27:16.953Z,15.50
2018-06-18T02:29:52.327Z,15.50
2018-06-18T02:32:26.074Z,15.50
2018-06-18T02:35:00.100Z,15.50
2018-06-18T02:37:33.714Z,15.50
2018-06-18T02:40:08.245Z,15.50
2018-06-18T02:42:36.658Z,15.50
2018-06-18T02:45:05.634Z,15.50
2018-06-18T02:47:34.605Z,15.50
2018-06-18T02:50:03.131Z,15.40
2018-06-18T02:52:32.206Z,15.50
2018-06-18T02:55:00.587Z,15.50
2018-06-18T02:57:29.478Z,15.40
2018-06-18T02:59:58.241Z,15.40
2018-06-18T03:02:27.129Z,15.40
2018-06-18T03:04:55.825Z,15.40
2018-06-18T03:07:24.425Z,15.40
2018-06-18T03:09:54.185Z,15.30
2018-06-18T03:12:22.797Z,15.40
2018-06-18T03:14:51.707Z,15.30
2018-06-18T03:17:20.660Z,15.30
2018-06-18T03:19:54.583Z,15.30
2018-06-18T03:22:28.880Z,15.20
2018-06-18T03:27:36.894Z,15.20
2018-06-18T03:30:05.654Z,15.20
2018-06-18T03:32:34.094Z,15.10
2018-06-18T03:35:02.986Z,15.20
2018-06-18T03:37:31.534Z,15.10
2018-06-18T03:42:28.287Z,15.10
2018-06-18T03:45:31.097Z,15.20
2018-06-18T03:48:05.660Z,15.20
2018-06-18T03:50:34.615Z,15.20
2018-06-18T03:53:03.123Z,15.30
2018-06-18T03:55:41.633Z,15.30
2018-06-18T03:58:10.224Z,15.30
2018-06-18T04:01:55.552Z,15.30
2018-06-18T04:04:30.078Z,15.30
2018-06-18T04:07:04.445Z,15.30
2018-06-18T04:09:38.085Z,15.30
2018-06-18T04:12:09.874Z,15.30
2018-06-18T04:14:38.259Z,15.30
2018-06-18T04:17:06.936Z,15.30
2018-06-18T04:19:35.589Z,15.40
2018-06-18T04:22:04.259Z,15.40
2018-06-18T04:24:32.679Z,15.50
2018-06-18T04:27:01.109Z,15.50
2018-06-18T04:29:29.941Z,15.60
2018-06-18T04:31:58.343Z,15.60
2018-06-18T04:34:39.746Z,15.60
2018-06-18T04:37:09.320Z,15.60
2018-06-18T04:42:12.243Z,15.80
2018-06-18T04:44:45.967Z,15.90
2018-06-18T04:48:19.228Z,16.00
2018-06-18T04:50:52.888Z,16.10
2018-06-18T04:53:21.615Z,16.30
2018-06-18T04:55:50.216Z,16.30
2018-06-18T04:58:18.628Z,16.30
2018-06-18T05:00:59.960Z,16.30
2018-06-18T05:03:28.440Z,16.50
2018-06-18T05:05:59.439Z,16.50
2018-06-18T05:10:36.393Z,16.50
2018-06-18T05:13:06.374Z,16.50
2018-06-18T05:15:37.105Z,16.50
2018-06-18T05:18:05.979Z,16.50
2018-06-18T05:20:34.485Z,16.50
2018-06-18T05:23:05.652Z,16.60
2018-06-18T05:25:34.345Z,16.80
2018-06-18T05:28:02.785Z,16.90
2018-06-18T05:30:31.691Z,17.00
2018-06-18T05:35:29.154Z,17.10
2018-06-18T05:38:03.183Z,17.10
2018-06-18T05:40:31.590Z,17.20
2018-06-18T05:43:00.445Z,17.30
2018-06-18T05:45:29.438Z,17.30
2018-06-18T05:47:57.881Z,17.30
2018-06-18T05:50:26.487Z,17.40
2018-06-18T05:52:57.836Z,17.30
2018-06-18T05:57:57.725Z,17.40
2018-06-18T06:00:26.367Z,17.50
2018-06-18T06:02:54.926Z,17.50
2018-06-18T06:05:24.947Z,17.60
2018-06-18T06:07:54.365Z,17.50
2018-06-18T06:10:22.798Z,17.40
2018-06-18T06:12:52.137Z,17.20
2018-06-18T06:15:20.522Z,17.30
2018-06-18T06:17:49.482Z,17.30
2018-06-18T06:20:18.482Z,17.30
2018-06-18T06:22:47.168Z,17.30
2018-06-18T06:25:16.605Z,17.30
2018-06-18T06:27:45.200Z,17.40
2018-06-18T06:30:14.889Z,17.40
2018-06-18T06:32:43.385Z,17.50
2018-06-18T06:35:30.303Z,17.60
2018-06-18T06:37:59.194Z,17.80
2018-06-18T06:40:27.752Z,17.80
2018-06-18T06:45:25.257Z,18.00
2018-06-18T06:47:53.693Z,18.20
2018-06-18T06:50:22.423Z,18.10
2018-06-18T06:52:51.025Z,18.20
2018-06-18T06:55:19.636Z,18.30
2018-06-18T06:57:48.042Z,18.30
2018-06-18T07:00:16.660Z,18.40
2018-06-18T07:02:45.045Z,18.40
2018-06-18T07:05:13.434Z,18.30
2018-06-18T07:07:42.579Z,18.20
2018-06-18T07:10:11.387Z,18.40
2018-06-18T07:12:39.933Z,18.50
2018-06-18T07:15:08.373Z,18.70
2018-06-18T07:17:37.912Z,19.00
2018-06-18T07:20:06.913Z,19.20
2018-06-18T07:22:35.421Z,19.40
2018-06-18T07:25:03.820Z,19.70
2018-06-18T07:27:32.233Z,20.20
2018-06-18T07:30:00.647Z,20.60
2018-06-18T07:32:29.647Z,20.70
2018-06-18T07:34:58.294Z,20.80
2018-06-18T07:37:26.739Z,20.90
2018-06-18T07:39:55.605Z,20.60
2018-06-18T07:42:24.053Z,20.30
2018-06-18T07:44:52.447Z,20.10
2018-06-18T07:47:21.127Z,19.80
2018-06-18T07:49:49.633Z,19.60
2018-06-18T07:52:18.582Z,19.50
2018-06-18T07:54:47.627Z,19.40
2018-06-18T07:57:16.177Z,19.40
2018-06-18T07:59:44.604Z,19.40
2018-06-18T08:02:13.483Z,19.40
2018-06-18T08:04:42.135Z,19.60
2018-06-18T08:07:11.071Z,19.50
2018-06-18T08:09:39.505Z,19.70
2018-06-18T08:12:08.057Z,19.70
2018-06-18T08:14:36.988Z,19.80
2018-06-18T08:17:05.641Z,19.80
2018-06-18T08:19:34.179Z,20.00
2018-06-18T08:22:02.811Z,20.00
2018-06-18T08:24:31.373Z,20.10
2018-06-18T08:26:59.879Z,20.30
2018-06-18T08:29:29.312Z,20.30
2018-06-18T08:31:58.421Z,20.30
2018-06-18T08:34:27.318Z,20.40
2018-06-18T08:36:55.726Z,20.40
2018-06-18T08:39:24.189Z,20.40
2018-06-18T08:41:52.657Z,20.40
2018-06-18T08:44:21.414Z,20.50
2018-06-18T08:46:50.732Z,20.40
2018-06-18T08:49:19.736Z,20.50
2018-06-18T08:51:53.819Z,20.50
2018-06-18T08:57:01.196Z,20.50
2018-06-18T08:59:35.926Z,20.70
2018-06-18T09:02:04.735Z,20.90
2018-06-18T09:04:38.983Z,21.20
2018-06-18T09:07:15.998Z,21.50
2018-06-18T09:09:45.609Z,21.70
2018-06-18T09:12:14.061Z,22.00
2018-06-18T09:14:43.457Z,21.90
2018-06-18T09:17:13.115Z,22.20
2018-06-18T09:19:42.007Z,22.60
2018-06-18T09:22:10.612Z,22.90
2018-06-18T09:24:39.199Z,23.10
2018-06-18T09:27:13.617Z,23.40
2018-06-18T09:29:47.496Z,23.30
2018-06-18T09:32:16.709Z,23.30
2018-06-18T09:34:45.181Z,23.70
2018-06-18T09:37:14.003Z,24.20
2018-06-18T09:39:42.468Z,24.60
2018-06-18T09:42:10.918Z,25.00
2018-06-18T09:44:39.303Z,24.90
2018-06-18T09:47:07.805Z,25.20
2018-06-18T09:49:41.674Z,26.10
2018-06-18T09:52:16.609Z,26.70
2018-06-18T09:54:51.745Z,26.80
2018-06-18T09:57:26.717Z,26.90
2018-06-18T10:00:16.834Z,27.70
2018-06-18T10:02:46.452Z,28.20
2018-06-18T10:05:14.906Z,28.20
2018-06-18T10:07:43.694Z,28.90
2018-06-18T10:10:12.167Z,29.10
2018-06-18T10:12:41.261Z,29.50
2018-06-18T10:15:09.930Z,29.40
2018-06-18T10:17:38.608Z,29.20
2018-06-18T10:20:07.142Z,29.40
2018-06-18T10:22:35.543Z,29.40
2018-06-18T10:25:04.698Z,29.60
2018-06-18T10:27:33.708Z,29.60
2018-06-18T10:30:02.335Z,29.20
2018-06-18T10:32:36.900Z,28.90
2018-06-18T10:37:15.803Z,28.30
2018-06-18T10:39:49.740Z,27.50
2018-06-18T10:42:23.977Z,26.50
2018-06-18T10:44:52.808Z,26.80
2018-06-18T10:47:21.418Z,27.30
2018-06-18T10:49:49.815Z,27.50
2018-06-18T10:52:19.368Z,27.60
2018-06-18T10:54:47.747Z,27.60
2018-06-18T10:57:16.276Z,27.40
2018-06-18T10:59:45.996Z,27.10
2018-06-18T11:02:14.518Z,26.90
2018-06-18T11:04:48.990Z,26.40
2018-06-18T11:07:17.353Z,26.70
2018-06-18T11:09:45.828Z,26.30
2018-06-18T11:12:14.602Z,25.70
2018-06-18T11:14:43.430Z,25.40
2018-06-18T11:17:18.013Z,25.30
2018-06-18T11:19:52.332Z,25.30
2018-06-18T11:22:23.341Z,25.60
2018-06-18T11:24:57.632Z,25.60
2018-06-18T11:27:26.152Z,25.70
2018-06-18T11:29:54.699Z,25.80
2018-06-18T11:32:23.782Z,25.70
2018-06-18T11:34:52.471Z,25.60
2018-06-18T11:37:21.099Z,25.10
2018-06-18T11:39:49.512Z,24.70
2018-06-18T11:42:17.947Z,25.10
2018-06-18T11:44:46.432Z,25.40
2018-06-18T11:47:14.839Z,24.90
2018-06-18T11:49:43.570Z,24.70
2018-06-18T11:52:11.963Z,25.10
2018-06-18T11:54:40.357Z,25.10
2018-06-18T11:57:08.989Z,25.10
2018-06-18T11:59:43.174Z,25.30
2018-06-18T12:02:17.377Z,25.40
2018-06-18T12:04:51.380Z,25.60
2018-06-18T12:07:25.328Z,25.70
2018-06-18T12:09:54.914Z,25.50
2018-06-18T12:12:23.321Z,25.20
2018-06-18T12:14:51.779Z,25.30
2018-06-18T12:17:20.497Z,25.20
2018-06-18T12:19:48.907Z,25.20
2018-06-18T12:22:17.325Z,25.10
2018-06-18T12:24:45.759Z,25.10
2018-06-18T12:27:17.390Z,25.40
2018-06-18T12:29:45.963Z,25.50
2018-06-18T12:32:14.555Z,25.70
2018-06-18T12:34:43.125Z,25.60
2018-06-18T12:37:11.716Z,25.80
2018-06-18T12:39:40.236Z,25.90
2018-06-18T12:42:09.572Z,25.70
2018-06-18T12:45:47.873Z,25.60
2018-06-18T12:48:22.202Z,25.60
2018-06-18T12:50:55.831Z,25.70
2018-06-18T12:53:30.061Z,25.50
2018-06-18T12:56:03.732Z,25.60
2018-06-18T12:58:33.011Z,25.50
2018-06-18T13:01:01.408Z,25.40
2018-06-18T13:03:30.491Z,25.40
2018-06-18T13:05:59.507Z,25.20
2018-06-18T13:08:28.108Z,25.20
2018-06-18T13:10:56.977Z,25.30
2018-06-18T13:13:25.483Z,25.10
2018-06-18T13:15:54.053Z,25.00
2018-06-18T13:20:51.132Z,25.40
2018-06-18T13:23:20.020Z,25.50
2018-06-18T13:25:49.774Z,25.50
2018-06-18T13:28:18.623Z,25.50
2018-06-18T13:30:47.363Z,25.40
2018-06-18T13:33:15.952Z,25.00
2018-06-18T13:35:44.412Z,24.70
2018-06-18T13:38:19.038Z,24.70
2018-06-18T13:40:52.814Z,25.00
2018-06-18T13:44:26.098Z,25.00
2018-06-18T13:49:33.832Z,25.20
2018-06-18T13:52:02.504Z,25.30
2018-06-18T13:54:31.528Z,25.30
2018-06-18T13:57:00.261Z,25.30
2018-06-18T13:59:29.387Z,25.40
2018-06-18T14:01:58.505Z,25.40
2018-06-18T14:04:27.193Z,25.00
2018-06-18T14:06:55.969Z,25.00
2018-06-18T14:09:24.963Z,25.00
2018-06-18T14:11:53.762Z,24.90
2018-06-18T14:14:22.717Z,24.80
2018-06-18T14:19:24.901Z,25.30
2018-06-18T14:21:53.932Z,25.10
2018-06-18T14:24:23.215Z,25.00
2018-06-18T14:26:51.896Z,24.90
2018-06-18T14:29:26.448Z,24.80
2018-06-18T14:31:56.814Z,24.50
2018-06-18T14:34:31.343Z,24.10
2018-06-18T14:37:05.621Z,23.80
2018-06-18T14:40:38.729Z,24.00
2018-06-18T14:43:07.505Z,24.20
2018-06-18T14:45:36.290Z,24.00
2018-06-18T14:48:05.865Z,23.90
2018-06-18T14:50:34.519Z,24.00
2018-06-18T14:53:04.065Z,24.20
2018-06-18T14:55:32.730Z,24.30
2018-06-18T14:58:01.454Z,24.40
2018-06-18T15:00:31.590Z,24.40
2018-06-18T15:03:00.190Z,24.60
2018-06-18T15:05:32.671Z,24.70
2018-06-18T15:08:01.396Z,24.80
2018-06-18T15:10:36.004Z,24.60
2018-06-18T15:13:05.680Z,24.50
2018-06-18T15:15:40.257Z,24.30
2018-06-18T15:18:09.071Z,24.20
2018-06-18T15:20:37.481Z,24.10
2018-06-18T15:23:07.647Z,24.20
2018-06-18T15:25:40.319Z,24.30
2018-06-18T15:28:09.809Z,24.40
2018-06-18T15:30:38.681Z,24.30
2018-06-18T15:33:07.091Z,24.30
2018-06-18T15:35:35.852Z,24.10
2018-06-18T15:38:04.976Z,24.20
2018-06-18T15:40:33.738Z,24.10
2018-06-18T15:43:02.764Z,24.00
2018-06-18T15:45:32.225Z,24.00
2018-06-18T15:48:00.677Z,23.90
2018-06-18T15:50:29.672Z,24.00
2018-06-18T15:52:58.829Z,23.80
2018-06-18T15:55:28.038Z,23.80
2018-06-18T15:57:56.776Z,23.50
2018-06-18T16:00:25.462Z,23.20
2018-06-18T16:02:53.966Z,23.10
2018-06-18T16:05:22.536Z,23.20
2018-06-18T16:07:51.677Z,23.20
2018-06-18T16:10:20.814Z,22.90
2018-06-18T16:12:49.579Z,22.80
2018-06-18T16:15:18.255Z,22.70
2018-06-18T16:17:46.856Z,22.60
2018-06-18T16:20:15.545Z,22.60
2018-06-18T16:22:44.166Z,22.50
2018-06-18T16:25:13.189Z,22.40
2018-06-18T16:27:41.772Z,22.30
2018-06-18T16:30:10.583Z,22.40
2018-06-18T16:32:39.238Z,22.60
2018-06-18T16:35:07.977Z,22.80
2018-06-18T16:37:37.038Z,22.90
2018-06-18T16:40:06.020Z,23.00
2018-06-18T16:42:34.867Z,22.90
2018-06-18T16:47:31.834Z,22.80
2018-06-18T16:50:00.521Z,22.70
2018-06-18T16:52:29.424Z,22.80
2018-06-18T16:54:58.033Z,22.70
2018-06-18T16:57:27.356Z,22.60
2018-06-18T16:59:56.127Z,22.50
2018-06-18T17:02:24.561Z,22.30
2018-06-18T17:04:53.129Z,22.30
2018-06-18T17:07:21.552Z,22.40
2018-06-18T17:09:50.107Z,22.30
2018-06-18T17:12:19.118Z,22.30
2018-06-18T17:14:48.308Z,22.30
2018-06-18T17:17:16.809Z,22.10
2018-06-18T17:19:45.885Z,22.00
2018-06-18T17:22:15.076Z,21.90
2018-06-18T17:24:43.646Z,21.80
2018-06-18T17:27:12.065Z,21.70
2018-06-18T17:29:40.929Z,21.80
2018-06-18T17:32:09.380Z,21.70
2018-06-18T17:34:38.021Z,21.70
2018-06-18T17:37:06.959Z,21.60
2018-06-18T17:39:36.314Z,21.50
2018-06-18T17:42:05.140Z,21.40
2018-06-18T17:44:33.810Z,21.30
2018-06-18T17:47:03.454Z,21.20
2018-06-18T17:49:31.935Z,21.00
2018-06-18T17:52:00.827Z,20.90
2018-06-18T17:54:29.745Z,20.80
2018-06-18T17:56:58.537Z,20.70
2018-06-18T17:59:27.172Z,20.60
2018-06-18T18:01:57.262Z,20.60
2018-06-18T18:04:25.875Z,20.50
2018-06-18T18:06:54.617Z,20.40
2018-06-18T18:09:24.287Z,20.40
2018-06-18T18:11:52.822Z,20.30
2018-06-18T18:14:22.150Z,20.30
2018-06-18T18:16:51.436Z,20.30
2018-06-18T18:19:20.594Z,20.30
2018-06-18T18:21:50.070Z,20.20
2018-06-18T18:24:18.602Z,20.20
2018-06-18T18:26:48.304Z,20.10
2018-06-18T18:29:17.186Z,20.10
2018-06-18T18:31:45.823Z,20.10
2018-06-18T18:34:14.310Z,20.00
2018-06-18T18:36:43.161Z,20.00
2018-06-18T18:39:12.128Z,20.00
2018-06-18T18:41:41.129Z,19.90
2018-06-18T18:44:10.336Z,19.90
2018-06-18T18:46:38.907Z,19.80
2018-06-18T18:49:07.722Z,19.70
2018-06-18T18:51:36.159Z,19.60
2018-06-18T18:54:05.715Z,19.60
2018-06-18T18:58:47.134Z,19.40
2018-06-18T19:01:16.427Z,19.30
2018-06-18T19:03:57.993Z,19.20
2018-06-18T19:06:26.904Z,19.00
2018-06-18T19:08:57.528Z,19.00
2018-06-18T19:11:26.320Z,19.00
2018-06-18T19:13:54.795Z,18.90
2018-06-18T19:16:29.689Z,18.80
2018-06-18T19:19:01.824Z,18.80
2018-06-18T19:21:31.066Z,18.70
2018-06-18T19:24:00.531Z,18.60
2018-06-18T19:26:30.174Z,18.60
2018-06-18T19:28:59.396Z,18.50
2018-06-18T19:31:28.152Z,18.50
2018-06-18T19:34:16.407Z,18.40
2018-06-18T19:36:48.566Z,18.30
2018-06-18T19:39:18.083Z,18.30
2018-06-18T19:41:46.828Z,18.20
2018-06-18T19:44:15.830Z,18.10
2018-06-18T19:48:06.986Z,18.10
2018-06-18T19:50:35.981Z,18.00
2018-06-18T19:53:05.187Z,18.00
2018-06-18T19:55:34.149Z,18.00
2018-06-18T19:58:03.282Z,18.00
2018-06-18T20:00:49.342Z,18.00
2018-06-18T20:05:47.529Z,17.90
2018-06-18T20:10:46.967Z,17.70
2018-06-18T20:13:15.594Z,17.60
2018-06-18T20:15:44.176Z,17.50
2018-06-18T20:18:13.303Z,17.50
2018-06-18T20:20:42.052Z,17.40
2018-06-18T20:23:14.227Z,17.40
2018-06-18T20:25:45.366Z,17.30
2018-06-18T20:28:14.595Z,17.30
2018-06-18T20:30:43.069Z,17.20
2018-06-18T20:33:13.134Z,17.10
2018-06-18T20:35:44.983Z,17.10
2018-06-18T20:38:13.521Z,17.00
2018-06-18T20:40:41.957Z,16.90
2018-06-18T20:43:10.746Z,16.90
2018-06-18T20:45:39.785Z,16.80
2018-06-18T20:48:08.640Z,16.80
2018-06-18T20:50:37.594Z,16.70
2018-06-18T20:53:06.713Z,16.70
2018-06-18T20:55:35.217Z,16.60
2018-06-18T20:58:04.053Z,16.50
2018-06-18T21:00:32.489Z,16.50
2018-06-18T21:03:00.967Z,16.40
2018-06-18T21:05:32.320Z,16.40
2018-06-18T21:08:01.658Z,16.30
2018-06-18T21:10:30.497Z,16.30
2018-06-18T21:12:59.249Z,16.20
2018-06-18T21:15:29.446Z,16.20
2018-06-18T21:17:58.115Z,16.10
2018-06-18T21:20:27.075Z,16.00
2018-06-18T21:22:55.821Z,16.00
2018-06-18T21:25:24.212Z,15.90
2018-06-18T21:27:55.231Z,15.90
2018-06-18T21:30:24.294Z,15.90
2018-06-18T21:32:52.689Z,15.90
2018-06-18T21:35:22.184Z,15.80
2018-06-18T21:37:51.210Z,15.80
2018-06-18T21:40:19.668Z,15.70
2018-06-18T21:42:48.400Z,15.70
2018-06-18T21:45:19.699Z,15.60
2018-06-18T21:47:49.991Z,15.70
2018-06-18T21:50:18.700Z,15.60
2018-06-18T21:52:47.314Z,15.60
2018-06-18T21:55:16.667Z,15.60
